AirNav   Air Wisconsin Up To $57,000 Bonus
 
 403 users online  

49C Camp Lake Airport
Camp Lake, Wisconsin, USA

GOING TO CAMP LAKE?


FAA INFORMATION EFFECTIVE 25 FEBRUARY 2021

Location

FAA Identifier: 49C
Lat/Long: 42-31-40.0700N 088-09-22.3100W
42-31.667833N 088-09.371833W
42.5277972,-88.1561972
(estimated)
Elevation: 755 ft. / 230 m (estimated)
Variation: 01W (1985)
From city: 1 mile W of CAMP LAKE, WI
Time zone: UTC -6 (UTC -5 during Daylight Saving Time)
Zip code: 53168

Airport Operations

Airport use: Open to the public
Control tower: no
ARTCC: CHICAGO CENTER
FSS: GREEN BAY FLIGHT SERVICE STATION
NOTAMs facility: GRB (NOTAM-D service available)
Attendance: UNATTND
Pattern altitude: 1355 ft. MSL
Wind indicator: yes
Segmented circle: no

Airport Communications

CTAF: 122.9
WX ASOS at ENW (11 nm E): PHONE 262-652-7730
WX AWOS-3 at BUU (12 nm NW): 125.275 (262-757-0907)
WX ASOS at UGN (14 nm SE): PHONE 847-782-0876
WX AWOS-3PT at 57C (19 nm NW): 118.125 (262-642-1845)

Nearby radio navigation aids

VOR radial/distance  VOR name  Freq  Var
OBKr336/20.5NORTHBROOK VOR/DME113.0002W
BAEr169/35.8BADGER VOR/DME116.4002E
DPAr011/39.2DUPAGE VOR/DME108.4002E

 
NDB name  Hdg/Dist  Freq  Var  ID
CODEE253/6.038902WEN . -.

Airport Services

Parking: tiedowns
Airframe service: NONE
Powerplant service: NONE
Bottled oxygen: NONE
Bulk oxygen: NONE

Runway Information

Runway 18/36

Dimensions: 2260 x 75 ft. / 689 x 23 m
Surface: turf, in fair condition
RUNWAY 18  RUNWAY 36
Latitude: 42-31.853833N42-31.481833N
Longitude: 088-09.371833W088-09.371833W
Elevation: 755.0 ft.755.0 ft.
Traffic pattern: leftleft
Obstructions: 25 ft. bldg, 20 ft. from runway, 80 ft. right of centerline35 ft. trees, 60 ft. from runway, 100 ft. right of centerline, 1:1 slope to clear

Airport Ownership and Management from official FAA records

Ownership: Privately-owned
Owner: CAMP LAKE AIRPORT LLC
28701 98TH ST
SALEM, WI 53168
Phone 847-612-8552
Manager: ELLIOTT EIDEN
28701 98TH ST
SALEM, WI 53168
Phone 847-612-8552

Airport Operational Statistics

Aircraft based on the field: 7
Single engine airplanes: 7
    
Aircraft operations: avg 42/week *
91% local general aviation
9% transient general aviation
* for 12-month period ending 18 June 2019

Additional Remarks

ARPT NOT PLWD; CFM CONDS WITH AMGR.
DEER ACTIVITY ON AND INVOF ARPT.
FOR CD CTC CHICAGO ARTCC AT 630-906-8921.

Instrument Procedures

There are no published instrument procedures at 49C.

Some nearby airports with instrument procedures:

KENW - Kenosha Regional Airport (11 nm E)
C02 - Grand Geneva Resort Airport (12 nm NW)
KBUU - Burlington Municipal Airport (12 nm NW)
10C - Galt Field Airport (12 nm SW)
C81 - Campbell Airport (13 nm S)
KUGN - Waukegan NTL Airport (14 nm SE)
57C - East Troy Municipal Airport (19 nm NW)
 
Loc | Ops | Rwys | IFR | FBO | Links
Com | Nav | Svcs | Stats | Notes
Area around 49C (Camp Lake Airport)
 
Road maps at: MapQuest Bing Google
 
Aerial photo
WARNING: Photo may not be current or correct
Aerial photo of 49C (Camp Lake Airport)
Photo by Robert A Kadera

Do you have a better or more recent aerial photo of Camp Lake Airport that you would like to share? If so, please send us your photo.

 
Sectional chart

 
Airport distance calculator
Flying to Camp Lake Airport? Find the distance to fly.

From to 49C

Sunrise and sunset
Times for 08-Mar-2021
 Local
(UTC-6)
 Zulu
(UTC)
Morning civil twilight05:5011:50
Sunrise06:1812:18
Sunset17:4923:49
Evening civil twilight18:1700:17

Current date and time
Zulu (UTC)  08-Mar-2021 11:38:26
Local (UTC-6)  08-Mar-2021 05:38:26
 
METAR
KENW 
11nm NE 
081053Z AUTO 21010KT 10SM BKN085 07/00 A3021 RMK AO2 SLP236 T00720000 $
KBUU 
11nm NW 
081055Z AUTO 21011KT 10SM 05/00 A3020 RMK AO2 T00470003 PWINO
KUGN 
14nm SE 
080955Z AUTO 23013KT 10SM CLR 07/M01 A3023 RMK AO2 PK WND 21026/0923 SLP241 T00721006
K57C 
19nm NW 
081055Z AUTO 21006KT 10SM OVC080 06/00 A3019 RMK AO2 T00640000
KRAC 
21nm NE 
081053Z AUTO 23012G19KT 10SM CLR 07/00 A3021 RMK AO2 SLP235 T00720000
TAF
KENW 
11nm NE 
080802Z 0808/0906 21012G20KT P6SM BKN080 WS020/22040KT FM081400 24011G20KT P6SM SCT150 FM090000 27004KT P6SM SCT180 FM090400 00000KT P6SM SCT040
NOTAMs
Click for the latest NOTAMs
NOTAMs are issued by the DoD/FAA and will open in a separate window not controlled by AirNav.

 

 
 

Would you like to see your business listed on this page?

 If your business provides an interesting product or service to pilots, flight crews, aircraft, or users of the Camp Lake Airport, you should consider listing it here.  To start the listing process, click on the button below
 
Add a business
 

Other Pages about Camp Lake Airport

Page from the Wisconsin airport directory (PDF)
 
Update a link
 
Copyright © AirNav, LLC. All rights reserved. Privacy Policy  Contact